Terminal Aerodrome Forecast
Issued by NWS

Home | Current Version | Previous Version | Graphics & Text | Print | Product List | Glossary On
Versions: 1 2 3 4 5 6 7 8 9 10 11 12 13 14 15 16 17 18 19 20 21 22 23 24 25 26 27 28 29 30 31 32 33 34 35
000
FTUS43 KABR 231100 AAE
TAFATY
TAF AMD
KATY 231103Z 2311/2406 09006KT 1SM BR VCSH VV002
      TEMPO 2311/2314 3SM -SHRA BR SCT002 BKN015 OVC090
     FM231800 11014KT P6SM VCSH BKN006 OVC080
     FM232300 12010KT P6SM VCTS BKN050CB=

USA.gov is the U.S. government's official web portal to all federal, state and local government web resources and services.